createdAt,value
2018-05-10T00:01:22.658Z,99076.27
2018-05-10T00:03:50.265Z,99072.97
2018-05-10T00:06:17.822Z,99073.55
2018-05-10T00:08:45.432Z,99070.70
2018-05-10T00:11:12.996Z,99072.31
2018-05-10T00:13:40.559Z,99068.20
2018-05-10T00:16:08.184Z,99072.21
2018-05-10T00:18:35.809Z,99072.79
2018-05-10T00:21:03.397Z,99068.05
2018-05-10T00:23:30.941Z,99072.84
2018-05-10T00:25:58.562Z,99068.88
2018-05-10T00:28:26.152Z,99069.88
2018-05-10T00:30:53.714Z,99066.87
2018-05-10T00:33:21.285Z,99063.42
2018-05-10T00:35:48.836Z,99066.88
2018-05-10T00:38:16.445Z,99060.49
2018-05-10T00:40:44.008Z,99067.59
2018-05-10T00:43:11.629Z,99058.84
2018-05-10T00:45:39.265Z,99065.22
2018-05-10T00:48:06.824Z,99060.47
2018-05-10T00:50:34.395Z,99057.29
2018-05-10T00:53:01.968Z,99055.98
2018-05-10T00:55:29.645Z,99056.34
2018-05-10T00:57:57.192Z,99055.80
2018-05-10T01:00:24.772Z,99055.21
2018-05-10T01:02:52.503Z,99062.27
2018-05-10T01:05:20.068Z,99061.92
2018-05-10T01:07:47.701Z,99062.58
2018-05-10T01:10:15.262Z,99063.75
2018-05-10T01:12:42.876Z,99064.47
2018-05-10T01:15:10.505Z,99066.95
2018-05-10T01:17:38.116Z,99068.44
2018-05-10T01:20:05.823Z,99067.30
2018-05-10T01:22:33.346Z,99063.52
2018-05-10T01:25:01.008Z,99064.34
2018-05-10T01:27:28.585Z,99064.20
2018-05-10T01:29:56.275Z,99065.78
2018-05-10T01:32:23.913Z,99064.95
2018-05-10T01:35:03.421Z,99064.78
2018-05-10T01:37:30.992Z,99067.16
2018-05-10T01:39:58.579Z,99073.22
2018-05-10T01:42:26.148Z,99074.48
2018-05-10T01:44:53.778Z,99073.04
2018-05-10T01:47:21.329Z,99072.28
2018-05-10T01:49:48.892Z,99070.56
2018-05-10T01:52:16.515Z,99070.73
2018-05-10T01:54:44.085Z,99063.87
2018-05-10T01:57:11.729Z,99064.58
2018-05-10T01:59:39.305Z,99067.59
2018-05-10T02:02:06.868Z,99065.66
2018-05-10T02:04:34.489Z,99065.53
2018-05-10T02:07:02.075Z,99066.89
2018-05-10T02:09:29.711Z,99069.41
2018-05-10T02:11:57.301Z,99065.77
2018-05-10T02:14:24.933Z,99068.49
2018-05-10T02:16:52.578Z,99072.03
2018-05-10T02:19:20.149Z,99068.64
2018-05-10T02:21:47.725Z,99066.06
2018-05-10T02:24:15.296Z,99065.23
2018-05-10T02:26:42.912Z,99071.91
2018-05-10T02:29:10.532Z,99068.95
2018-05-10T02:31:38.100Z,99077.05
2018-05-10T02:34:05.668Z,99077.70
2018-05-10T02:36:33.219Z,99080.89
2018-05-10T02:39:00.797Z,99089.17
2018-05-10T02:41:28.417Z,99082.61
2018-05-10T02:43:56.034Z,99086.87
2018-05-10T02:46:23.593Z,99087.23
2018-05-10T02:48:51.220Z,99092.43
2018-05-10T02:51:18.792Z,99091.24
2018-05-10T02:53:46.361Z,99097.19
2018-05-10T02:56:13.931Z,99095.27
2018-05-10T02:58:41.494Z,99103.98
2018-05-10T03:01:09.242Z,99104.84
2018-05-10T03:03:36.871Z,99101.63
2018-05-10T03:06:04.505Z,99106.79
2018-05-10T03:08:32.080Z,99107.13
2018-05-10T03:10:59.662Z,99104.41
2018-05-10T03:13:27.237Z,99104.43
2018-05-10T03:15:54.804Z,99114.48
2018-05-10T03:18:22.420Z,99111.81
2018-05-10T03:20:49.994Z,99118.31
2018-05-10T03:23:17.573Z,99119.41
2018-05-10T03:25:45.194Z,99122.66
2018-05-10T03:28:12.765Z,99123.48
2018-05-10T03:30:40.341Z,99129.69
2018-05-10T03:33:07.893Z,99127.41
2018-05-10T03:35:35.575Z,99130.63
2018-05-10T03:38:03.212Z,99131.98
2018-05-10T03:40:30.813Z,99130.89
2018-05-10T03:42:58.450Z,99129.45
2018-05-10T03:45:26.029Z,99134.28
2018-05-10T03:47:53.723Z,99135.53
2018-05-10T03:50:21.285Z,99136.06
2018-05-10T03:52:48.844Z,99139.68
2018-05-10T03:55:16.423Z,99143.61
2018-05-10T03:57:44.069Z,99139.68
2018-05-10T04:00:11.753Z,99144.88
2018-05-10T04:02:51.076Z,99151.44
2018-05-10T04:05:30.541Z,99149.09
2018-05-10T04:08:10.022Z,99145.50
2018-05-10T04:10:49.366Z,99151.22
2018-05-10T04:13:16.978Z,99148.45
2018-05-10T04:15:44.541Z,99156.30
2018-05-10T04:18:12.120Z,99156.14
2018-05-10T04:20:39.697Z,99165.69
2018-05-10T04:23:07.273Z,99165.33
2018-05-10T04:25:34.833Z,99158.72
2018-05-10T04:28:02.464Z,99164.78
2018-05-10T04:30:30.043Z,99161.25
2018-05-10T04:32:57.603Z,99164.78
2018-05-10T04:35:25.240Z,99155.13
2018-05-10T04:37:52.800Z,99166.86
2018-05-10T04:40:20.440Z,99164.00
2018-05-10T04:42:48.080Z,99169.15
2018-05-10T04:45:15.757Z,99164.03
2018-05-10T04:47:43.384Z,99166.98
2018-05-10T04:50:10.954Z,99167.81
2018-05-10T04:52:38.521Z,99164.74
2018-05-10T04:55:06.141Z,99165.61
2018-05-10T04:57:33.709Z,99174.84
2018-05-10T05:00:01.292Z,99170.00
2018-05-10T05:02:28.919Z,99166.72
2018-05-10T05:04:56.480Z,99169.02
2018-05-10T05:07:24.036Z,99168.00
2018-05-10T05:09:51.665Z,99170.41
2018-05-10T05:12:19.233Z,99172.26
2018-05-10T05:14:46.869Z,99183.45
2018-05-10T05:17:14.505Z,99181.28
2018-05-10T05:19:42.189Z,99184.34
2018-05-10T05:22:09.800Z,99178.86
2018-05-10T05:24:37.360Z,99194.80
2018-05-10T05:27:04.938Z,99194.75
2018-05-10T05:29:32.560Z,99195.86
2018-05-10T05:32:00.137Z,99196.45
2018-05-10T05:34:27.711Z,99198.76
2018-05-10T05:36:55.425Z,99208.75
2018-05-10T05:39:22.988Z,99200.91
2018-05-10T05:41:50.545Z,99203.84
2018-05-10T05:44:18.188Z,99198.08
2018-05-10T05:46:45.805Z,99204.25
2018-05-10T05:49:13.433Z,99208.91
2018-05-10T05:51:40.997Z,99204.30
2018-05-10T05:54:08.683Z,99204.27
2018-05-10T05:56:36.254Z,99202.27
2018-05-10T05:59:03.895Z,99201.65
2018-05-10T06:01:31.421Z,99205.84
2018-05-10T06:03:58.979Z,99207.30
2018-05-10T06:06:26.557Z,99209.91
2018-05-10T06:08:54.131Z,99212.55
2018-05-10T06:11:21.696Z,99207.48
2018-05-10T06:13:49.330Z,99213.20
2018-05-10T06:16:16.969Z,99216.60
2018-05-10T06:18:44.613Z,99217.14
2018-05-10T06:21:12.178Z,99217.50
2018-05-10T06:23:39.861Z,99215.00
2018-05-10T06:26:07.420Z,99216.98
2018-05-10T06:28:34.976Z,99213.33
2018-05-10T06:31:02.546Z,99215.13
2018-05-10T06:33:30.165Z,99210.09
2018-05-10T06:35:57.802Z,99203.11
2018-05-10T06:38:25.429Z,99207.43
2018-05-10T06:40:53.086Z,99209.31
2018-05-10T06:43:20.647Z,99213.89
2018-05-10T06:45:48.264Z,99211.44
2018-05-10T06:48:15.833Z,99219.00
2018-05-10T06:50:43.400Z,99210.67
2018-05-10T06:53:11.001Z,99214.34
2018-05-10T06:55:38.630Z,99217.11
2018-05-10T06:58:06.301Z,99224.79
2018-05-10T07:00:33.937Z,99223.13
2018-05-10T07:03:01.569Z,99230.27
2018-05-10T07:05:29.150Z,99224.62
2018-05-10T07:07:56.769Z,99227.22
2018-05-10T07:10:24.401Z,99234.83
2018-05-10T07:12:51.957Z,99235.12
2018-05-10T07:15:19.559Z,99236.08
2018-05-10T07:17:47.132Z,99231.86
2018-05-10T07:20:14.714Z,99231.29
2018-05-10T07:22:42.285Z,99226.77
2018-05-10T07:25:09.916Z,99235.16
2018-05-10T07:27:37.501Z,99233.09
2018-05-10T07:30:05.117Z,99231.73
2018-05-10T07:32:32.728Z,99231.17
2018-05-10T07:35:00.284Z,99237.59
2018-05-10T07:37:27.860Z,99234.77
2018-05-10T07:39:55.489Z,99239.11
2018-05-10T07:42:23.044Z,99239.00
2018-05-10T07:44:50.612Z,99238.63
2018-05-10T07:47:18.231Z,99236.30
2018-05-10T07:49:45.880Z,99239.11
2018-05-10T07:52:13.502Z,99229.61
2018-05-10T07:54:41.078Z,99232.55
2018-05-10T07:57:08.713Z,99238.41
2018-05-10T07:59:36.328Z,99236.97
2018-05-10T08:02:03.937Z,99239.16
2018-05-10T08:04:31.496Z,99232.97
2018-05-10T08:06:59.050Z,99238.67
2018-05-10T08:09:26.702Z,99232.06
2018-05-10T08:11:54.317Z,99235.44
2018-05-10T08:14:21.928Z,99238.61
2018-05-10T08:16:49.489Z,99230.81
2018-05-10T08:19:17.052Z,99234.34
2018-05-10T08:21:44.616Z,99238.52
2018-05-10T08:24:12.233Z,99231.26
2018-05-10T08:26:39.773Z,99236.52
2018-05-10T08:29:07.328Z,99237.22
2018-05-10T08:31:34.945Z,99229.42
2018-05-10T08:34:02.516Z,99234.28
2018-05-10T08:36:30.257Z,99234.81
2018-05-10T08:38:57.757Z,99237.98
2018-05-10T08:41:25.387Z,99235.07
2018-05-10T08:43:53.021Z,99233.45
2018-05-10T08:46:20.581Z,99234.28
2018-05-10T08:48:48.188Z,99235.25
2018-05-10T08:51:15.813Z,99244.93
2018-05-10T08:53:43.372Z,99245.21
2018-05-10T08:56:11.029Z,99241.73
2018-05-10T08:58:38.604Z,99236.34
2018-05-10T09:01:06.173Z,99242.96
2018-05-10T09:03:33.728Z,99231.82
2018-05-10T09:06:01.345Z,99241.91
2018-05-10T09:08:28.905Z,99236.25
2018-05-10T09:10:56.464Z,99239.52
2018-05-10T09:13:24.093Z,99235.12
2018-05-10T09:15:51.719Z,99242.55
2018-05-10T09:18:19.289Z,99244.02
2018-05-10T09:20:46.861Z,99250.48
2018-05-10T09:23:14.469Z,99250.48
2018-05-10T09:25:42.128Z,99255.03
2018-05-10T09:28:09.696Z,99244.48
2018-05-10T09:30:37.279Z,99244.97
2018-05-10T09:33:04.841Z,99248.92
2018-05-10T09:35:32.450Z,99244.92
2018-05-10T09:38:00.011Z,99250.06
2018-05-10T09:40:28.595Z,99253.33
2018-05-10T09:42:56.156Z,99251.28
2018-05-10T09:45:23.709Z,99247.48
2018-05-10T09:47:51.329Z,99247.26
2018-05-10T09:50:18.900Z,99244.43
2018-05-10T09:52:46.484Z,99241.33
2018-05-10T09:55:14.056Z,99244.48
2018-05-10T09:57:41.747Z,99245.47
2018-05-10T10:00:09.425Z,99245.20
2018-05-10T10:02:36.976Z,99241.60
2018-05-10T10:05:04.549Z,99240.21
2018-05-10T10:07:32.112Z,99247.05
2018-05-10T10:09:59.676Z,99234.23
2018-05-10T10:12:27.303Z,99242.94
2018-05-10T10:14:54.917Z,99238.33
2018-05-10T10:17:22.546Z,99229.91
2018-05-10T10:19:50.109Z,99229.95
2018-05-10T10:22:17.749Z,99221.66
2018-05-10T10:24:45.305Z,99210.84
2018-05-10T10:27:12.872Z,99206.72
2018-05-10T10:29:40.438Z,99213.82
2018-05-10T10:32:08.105Z,99213.55
2018-05-10T10:34:35.742Z,99215.09
2018-05-10T10:37:03.252Z,99211.56
2018-05-10T10:39:30.901Z,99221.86
2018-05-10T10:41:58.468Z,99222.78
2018-05-10T10:44:26.074Z,99221.40
2018-05-10T10:46:53.681Z,99221.30
2018-05-10T10:49:21.297Z,99222.77
2018-05-10T10:51:48.925Z,99220.86
2018-05-10T10:54:16.486Z,99222.57
2018-05-10T10:56:44.115Z,99226.44
2018-05-10T10:59:11.667Z,99219.46
2018-05-10T11:01:39.243Z,99215.84
2018-05-10T11:04:06.889Z,99224.43
2018-05-10T11:06:34.508Z,99221.19
2018-05-10T11:09:02.061Z,99224.45
2018-05-10T11:11:29.626Z,99219.20
2018-05-10T11:13:57.196Z,99218.50
2018-05-10T11:16:24.828Z,99218.97
2018-05-10T11:18:52.393Z,99213.69
2018-05-10T11:21:19.952Z,99211.64
2018-05-10T11:23:47.621Z,99210.97
2018-05-10T11:26:15.165Z,99209.77
2018-05-10T11:28:42.717Z,99212.35
2018-05-10T11:31:10.288Z,99218.97
2018-05-10T11:33:37.841Z,99217.27
2018-05-10T11:36:05.406Z,99221.13
2018-05-10T11:38:32.973Z,99224.05
2018-05-10T11:41:00.580Z,99222.55
2018-05-10T11:43:28.162Z,99228.81
2018-05-10T11:45:55.724Z,99223.48
2018-05-10T11:48:23.288Z,99222.93
2018-05-10T11:50:50.845Z,99214.58
2018-05-10T11:53:18.419Z,99214.42
2018-05-10T11:55:45.985Z,99212.37
2018-05-10T11:58:13.593Z,99210.89
2018-05-10T12:00:41.153Z,99217.67
2018-05-10T12:03:08.774Z,99210.56
2018-05-10T12:05:36.337Z,99206.31
2018-05-10T12:08:03.957Z,99203.23
2018-05-10T12:10:31.505Z,99197.78
2018-05-10T12:12:59.117Z,99200.56
2018-05-10T12:15:26.725Z,99199.81
2018-05-10T12:17:54.349Z,99196.82
2018-05-10T12:20:21.994Z,99195.14
2018-05-10T12:22:49.634Z,99198.87
2018-05-10T12:25:17.253Z,99197.59
2018-05-10T12:27:44.881Z,99198.78
2018-05-10T12:30:12.455Z,99206.43
2018-05-10T12:32:40.144Z,99206.50
2018-05-10T12:35:07.700Z,99203.64
2018-05-10T12:37:35.256Z,99196.39
2018-05-10T12:40:02.816Z,99192.37
2018-05-10T12:42:30.455Z,99188.58
2018-05-10T12:44:58.021Z,99190.99
2018-05-10T12:47:25.572Z,99186.28
2018-05-10T12:49:53.251Z,99185.37
2018-05-10T12:52:20.808Z,99189.13
2018-05-10T12:54:48.365Z,99184.33
2018-05-10T12:57:15.932Z,99182.44
2018-05-10T12:59:43.488Z,99189.46
2018-05-10T13:02:11.170Z,99186.78
2018-05-10T13:04:38.720Z,99190.42
2018-05-10T13:07:06.277Z,99192.33
2018-05-10T13:09:33.904Z,99189.92
2018-05-10T13:12:01.456Z,99194.85
2018-05-10T13:14:29.021Z,99189.52
2018-05-10T13:16:56.580Z,99191.97
2018-05-10T13:19:24.248Z,99187.83
2018-05-10T13:21:51.912Z,99193.42
2018-05-10T13:24:19.482Z,99194.30
2018-05-10T13:26:47.061Z,99196.62
2018-05-10T13:29:14.686Z,99210.58
2018-05-10T13:31:42.324Z,99208.35
2018-05-10T13:34:09.885Z,99210.77
2018-05-10T13:36:37.443Z,99212.83
2018-05-10T13:39:05.056Z,99213.17
2018-05-10T13:41:32.604Z,99218.63
2018-05-10T13:44:00.164Z,99223.25
2018-05-10T13:46:27.778Z,99230.05
2018-05-10T13:48:55.388Z,99231.92
2018-05-10T13:51:23.071Z,99242.69
2018-05-10T13:53:50.660Z,99254.14
2018-05-10T13:56:18.261Z,99246.52
2018-05-10T13:58:45.877Z,99248.55
2018-05-10T14:01:13.441Z,99262.37
2018-05-10T14:03:41.062Z,99257.57
2018-05-10T14:06:08.673Z,99266.99
2018-05-10T14:08:36.329Z,99275.55
2018-05-10T14:11:03.949Z,99285.59
2018-05-10T14:13:31.461Z,99285.91
2018-05-10T14:15:59.012Z,99289.21
2018-05-10T14:18:26.584Z,99287.69
2018-05-10T14:20:54.131Z,99301.73
2018-05-10T14:23:21.814Z,99297.44
2018-05-10T14:25:49.404Z,99301.00
2018-05-10T14:28:16.969Z,99300.21
2018-05-10T14:30:44.591Z,99302.38
2018-05-10T14:33:12.230Z,99293.28
2018-05-10T14:35:39.942Z,99300.58
2018-05-10T14:38:07.513Z,99302.89
2018-05-10T14:40:35.078Z,99304.26
2018-05-10T14:43:02.646Z,99308.52
2018-05-10T14:45:30.205Z,99303.00
2018-05-10T14:47:57.822Z,99308.75
2018-05-10T14:50:25.376Z,99313.92
2018-05-10T14:52:52.997Z,99307.41
2018-05-10T14:55:20.694Z,99307.35
2018-05-10T14:57:48.222Z,99298.92
2018-05-10T15:00:15.845Z,99302.13
2018-05-10T15:02:43.403Z,99299.87
2018-05-10T15:05:10.985Z,99301.56
2018-05-10T15:07:38.617Z,99300.58
2018-05-10T15:10:06.237Z,99310.82
2018-05-10T15:12:33.807Z,99315.45
2018-05-10T15:15:01.433Z,99318.47
2018-05-10T15:17:29.038Z,99329.31
2018-05-10T15:19:56.600Z,99334.07
2018-05-10T15:22:24.217Z,99331.98
2018-05-10T15:24:51.791Z,99332.52
2018-05-10T15:27:19.450Z,99336.20
2018-05-10T15:29:46.998Z,99333.84
2018-05-10T15:32:14.589Z,99331.53
2018-05-10T15:34:42.211Z,99335.42
2018-05-10T15:37:09.770Z,99335.66
2018-05-10T15:39:37.409Z,99329.92
2018-05-10T15:42:05.009Z,99329.09
2018-05-10T15:44:32.581Z,99338.44
2018-05-10T15:47:00.209Z,99341.02
2018-05-10T15:49:27.778Z,99341.42
2018-05-10T15:51:55.424Z,99341.58
2018-05-10T15:54:23.000Z,99340.94
2018-05-10T15:56:50.585Z,99333.44
2018-05-10T15:59:18.165Z,99334.19
2018-05-10T16:01:45.776Z,99337.61
2018-05-10T16:04:13.400Z,99332.11
2018-05-10T16:06:41.059Z,99336.71
2018-05-10T16:09:08.628Z,99341.09
2018-05-10T16:11:36.191Z,99343.83
2018-05-10T16:14:03.744Z,99337.98
2018-05-10T16:16:31.314Z,99344.52
2018-05-10T16:18:58.897Z,99348.94
2018-05-10T16:21:26.474Z,99344.33
2018-05-10T16:23:54.026Z,99349.95
2018-05-10T16:26:21.684Z,99345.28
2018-05-10T16:28:49.302Z,99340.03
2018-05-10T16:31:16.928Z,99345.16
2018-05-10T16:33:44.492Z,99348.70
2018-05-10T16:36:12.048Z,99348.85
2018-05-10T16:38:39.616Z,99351.61
2018-05-10T16:41:07.214Z,99353.98
2018-05-10T16:43:34.880Z,99355.64
2018-05-10T16:46:02.473Z,99364.17
2018-05-10T16:48:30.090Z,99365.23
2018-05-10T16:50:57.699Z,99366.92
2018-05-10T16:53:25.322Z,99370.06
2018-05-10T16:55:52.857Z,99370.17
2018-05-10T16:58:20.417Z,99382.45
2018-05-10T17:00:48.032Z,99381.16
2018-05-10T17:03:15.596Z,99380.52
2018-05-10T17:05:43.165Z,99387.65
2018-05-10T17:08:10.736Z,99391.91
2018-05-10T17:10:38.373Z,99393.69
2018-05-10T17:13:06.009Z,99408.02
2018-05-10T17:15:33.564Z,99400.67
2018-05-10T17:18:01.248Z,99404.92
2018-05-10T17:20:28.824Z,99408.44
2018-05-10T17:22:56.384Z,99408.98
2018-05-10T17:25:23.926Z,99408.96
2018-05-10T17:27:51.479Z,99417.33
2018-05-10T17:30:19.119Z,99421.94
2018-05-10T17:32:46.745Z,99426.15
2018-05-10T17:35:14.485Z,99432.33
2018-05-10T17:37:42.046Z,99432.01
2018-05-10T17:40:09.609Z,99428.69
2018-05-10T17:42:37.161Z,99433.67
2018-05-10T17:45:04.725Z,99437.07
2018-05-10T17:47:32.352Z,99442.02
2018-05-10T17:49:59.969Z,99443.13
2018-05-10T17:52:27.581Z,99448.14
2018-05-10T17:54:55.198Z,99451.61
2018-05-10T17:57:22.765Z,99454.44
2018-05-10T17:59:50.393Z,99454.47
2018-05-10T18:02:17.993Z,99467.19
2018-05-10T18:04:45.620Z,99463.20
2018-05-10T18:07:13.218Z,99458.61
2018-05-10T18:09:40.893Z,99469.91
2018-05-10T18:12:08.505Z,99465.30
2018-05-10T18:14:36.145Z,99466.86
2018-05-10T18:17:03.696Z,99471.31
2018-05-10T18:19:31.320Z,99470.91
2018-05-10T18:21:58.954Z,99474.97
2018-05-10T18:24:26.582Z,99473.61
2018-05-10T18:26:54.192Z,99474.47
2018-05-10T18:29:21.749Z,99479.07
2018-05-10T18:31:49.322Z,99484.00
2018-05-10T18:34:16.888Z,99483.61
2018-05-10T18:36:44.509Z,99485.77
2018-05-10T18:39:12.072Z,99486.19
2018-05-10T18:41:39.693Z,99486.02
2018-05-10T18:44:07.302Z,99485.55
2018-05-10T18:46:34.861Z,99486.60
2018-05-10T18:49:02.416Z,99493.45
2018-05-10T18:51:29.998Z,99497.98
2018-05-10T18:53:57.562Z,99497.13
2018-05-10T18:56:25.152Z,99495.75
2018-05-10T18:58:52.786Z,99501.26
2018-05-10T19:01:20.469Z,99498.37
2018-05-10T19:03:48.089Z,99499.32
2018-05-10T19:06:15.656Z,99505.77
2018-05-10T19:08:43.237Z,99510.45
2018-05-10T19:11:10.833Z,99513.20
2018-05-10T19:13:38.485Z,99515.72
2018-05-10T19:16:06.053Z,99516.85
2018-05-10T19:18:33.672Z,99514.88
2018-05-10T19:21:01.257Z,99515.36
2018-05-10T19:23:28.837Z,99524.16
2018-05-10T19:25:56.422Z,99515.93
2018-05-10T19:28:24.018Z,99522.71
2018-05-10T19:30:52.007Z,99522.83
2018-05-10T19:33:19.651Z,99520.58
2018-05-10T19:35:47.268Z,99520.16
2018-05-10T19:38:14.848Z,99520.93
2018-05-10T19:40:42.417Z,99520.98
2018-05-10T19:43:09.993Z,99522.16
2018-05-10T19:45:37.564Z,99521.13
2018-05-10T19:48:05.188Z,99520.03
2018-05-10T19:50:32.757Z,99521.69
2018-05-10T19:53:00.301Z,99525.25
2018-05-10T19:55:27.883Z,99525.76
2018-05-10T19:57:55.448Z,99525.03
2018-05-10T20:00:23.018Z,99526.28
2018-05-10T20:02:50.576Z,99529.27
2018-05-10T20:05:18.201Z,99525.62
2018-05-10T20:07:45.829Z,99528.33
2018-05-10T20:10:13.388Z,99517.35
2018-05-10T20:12:40.949Z,99517.71
2018-05-10T20:15:08.516Z,99522.61
2018-05-10T20:17:36.126Z,99525.33
2018-05-10T20:20:03.705Z,99525.54
2018-05-10T20:22:31.327Z,99525.02
2018-05-10T20:24:58.959Z,99526.48
2018-05-10T20:27:26.517Z,99526.17
2018-05-10T20:29:54.145Z,99530.02
2018-05-10T20:32:21.766Z,99525.80
2018-05-10T20:34:49.653Z,99533.08
2018-05-10T20:37:17.257Z,99531.88
2018-05-10T20:39:44.925Z,99535.19
2018-05-10T20:42:12.492Z,99537.43
2018-05-10T20:44:40.144Z,99538.41
2018-05-10T20:47:07.708Z,99537.84
2018-05-10T20:49:35.329Z,99542.64
2018-05-10T20:52:02.938Z,99551.06
2018-05-10T20:54:30.557Z,99543.02
2018-05-10T20:56:58.185Z,99546.77
2018-05-10T20:59:25.756Z,99547.83
2018-05-10T21:01:53.389Z,99550.03
2018-05-10T21:04:21.041Z,99549.31
2018-05-10T21:06:48.602Z,99548.38
2018-05-10T21:09:16.176Z,99556.41
2018-05-10T21:11:43.739Z,99552.71
2018-05-10T21:14:11.274Z,99551.86
2018-05-10T21:16:38.905Z,99547.24
2018-05-10T21:19:06.472Z,99548.48
2018-05-10T21:21:34.125Z,99551.48
2018-05-10T21:24:01.685Z,99547.98
2018-05-10T21:26:29.248Z,99544.96
2018-05-10T21:28:56.811Z,99549.55
2018-05-10T21:31:24.370Z,99549.36
2018-05-10T21:33:52.009Z,99546.38
2018-05-10T21:36:19.637Z,99548.05
2018-05-10T21:38:47.315Z,99552.01
2018-05-10T21:41:14.874Z,99547.33
2018-05-10T21:43:42.492Z,99549.05
2018-05-10T21:46:10.126Z,99550.87
2018-05-10T21:48:37.782Z,99555.00
2018-05-10T21:51:05.356Z,99569.17
2018-05-10T21:53:32.968Z,99561.77
2018-05-10T21:56:00.661Z,99571.19
2018-05-10T21:58:28.223Z,99564.50
2018-05-10T22:00:55.845Z,99562.27
2018-05-10T22:03:23.650Z,99563.75
2018-05-10T22:05:51.409Z,99568.23
2018-05-10T22:08:19.198Z,99566.72
2018-05-10T22:10:46.965Z,99569.08
2018-05-10T22:13:14.826Z,99555.35
2018-05-10T22:15:42.621Z,99546.42
2018-05-10T22:18:10.424Z,99550.91
2018-05-10T22:20:38.223Z,99558.51
2018-05-10T22:23:05.783Z,99554.08
2018-05-10T22:25:33.595Z,99555.30
2018-05-10T22:28:01.401Z,99556.16
2018-05-10T22:30:29.013Z,99553.02
2018-05-10T22:32:56.659Z,99554.33
2018-05-10T22:35:24.333Z,99550.76
2018-05-10T22:37:51.889Z,99563.36
2018-05-10T22:40:19.515Z,99560.81
2018-05-10T22:42:47.249Z,99562.98
2018-05-10T22:45:14.809Z,99558.59
2018-05-10T22:47:42.419Z,99565.27
2018-05-10T22:50:10.212Z,99561.50
2018-05-10T22:52:37.846Z,99558.12
2018-05-10T22:55:05.420Z,99556.40
2018-05-10T22:57:33.067Z,99553.92
2018-05-10T23:00:00.638Z,99562.86
2018-05-10T23:02:28.197Z,99557.77
2018-05-10T23:04:55.824Z,99555.73
2018-05-10T23:07:23.441Z,99549.89
2018-05-10T23:09:50.997Z,99544.79
2018-05-10T23:12:18.583Z,99540.21
2018-05-10T23:14:46.230Z,99540.06
2018-05-10T23:17:13.912Z,99538.95
2018-05-10T23:19:41.560Z,99538.27
2018-05-10T23:22:09.257Z,99534.64
2018-05-10T23:24:36.886Z,99532.22
2018-05-10T23:27:04.532Z,99543.01
2018-05-10T23:29:32.183Z,99538.84
2018-05-10T23:31:59.796Z,99528.63
2018-05-10T23:34:27.435Z,99527.60
2018-05-10T23:36:55.065Z,99532.19
2018-05-10T23:39:22.754Z,99534.12
2018-05-10T23:41:50.322Z,99540.09
2018-05-10T23:44:17.945Z,99543.52
2018-05-10T23:46:45.573Z,99541.36
2018-05-10T23:49:13.210Z,99544.64
2018-05-10T23:51:40.833Z,99544.89
2018-05-10T23:54:08.449Z,99546.66
2018-05-10T23:56:36.134Z,99554.48
2018-05-10T23:59:03.808Z,99551.93
